Terminal Aerodrome Forecast
Issued by NWS Caribou, ME

Home | Current Version | Previous Version | Text Only | Print | Product List | Glossary On
Versions: 1 2 3 4 5 6 7 8 9 10 11 12 13 14 15 16 17 18 19 20
647
FTUS41 KCAR 281344 AAA
TAFBGR
TAF AMD
KBGR 281344Z 2814/2912 04008KT P6SM BKN025
      TEMPO 2814/2816 SCT025
     FM281600 01007KT P6SM SCT025 BKN035
     FM290800 02008KT P6SM SCT008 BKN015=

USA.gov is the U.S. government's official web portal to all federal, state and local government web resources and services.